Clifton, OH (45316)

8:50 AM EST on January 26, 2015 (GMT -0500)
Yellow Springs | Change Station
CLOSE
Current Station
Personal Weather Station
Location: Yellow Springs, OH
Elevation: 988 ft
Nearby Weather Stations

Elev 988 ft 39.79 °N, 83.88 °W | Updated 6 seconds ago

Scattered Clouds
Scattered Clouds
17.1 °F
Feels Like 17 °F
N
2.7
Wind Variable Wind from NNE
Gusts 4.9 mph

Today
High -- | Low -- °F
--% Chance of Precip.
Yesterday
High -- | Low -- °F
Precip. -- in
7:48 AM 5:47 PM
Waxing Crescent, 43% visible
Pressure 29.88 in
Visibility 8.0 miles
Clouds Few 4000 ft
Scattered Clouds 11000 ft
Windchill 17 °F
Dew Point 11 °F
Humidity 78%
Rainfall 0.00 in
Snow Depth Not available.
UV 0.0 out of 12
Pollen .10 out of 12
Air Quality Not available.
Flu Activity Not available.
METAR KSGH 261256Z AUTO 33008KT 8SM FEW040 SCT110 M09/M11 A2983 RMK AO2 T10881105 SLP116

More Conditions Fewer Conditions

Pressure 29.88 in
Visibility 8.0 miles
Clouds Few 4000 ft
Scattered Clouds 11000 ft
Windchill 17 °F
Dew Point 11 °F
Humidity 78%
Rainfall 0.00 in
Snow Depth Not available.
UV 0.0 out of 12
Pollen .10 out of 12
Air Quality Not available.
Flu Activity Not available.
METAR KSGH 261256Z AUTO 33008KT 8SM FEW040 SCT110 M09/M11 A2983 RMK AO2 T10881105 SLP116

More Conditions Fewer Conditions

10-Day Weather Forecast

Almanac

Astronomy

Jan. 26, 2015 Rise Set
Actual Time
Civil Twilight
Nautical Twilight
Astronomical Twilight
Moon
Length of Visible Light
Length of Day
Tomorrow will be .
, % of the Moon is Illuminated

Today's Extremes

State Highs State Lows

Community

WunderPhotos

Upload Photos

1,790,200 photos uploaded!

WunderBlogs® & News

Nearby

Air Quality

  Air Quality AQ Index Pollutant
Not available.

Snow Depth

Station Depth Elevation

Earthquake Activity

City Distance Mag. Time & Date
Minimum magnitude displayed is 2.5.

Coastal Water Temperatures

Place Temperature

Nearby Weather Stations